Muscat, Oman
Current Conditions -  °F | °C
As of 7:50 AM on Saturday 20 Dec 2014 (Local Time) from OOMS Reporting Station
Clear Clear  
Wind Chill: 21°   Ceiling: Unl
Heat Index: 21°   Visibility: 5mi
Dew Point: 17°   Wind: 0mph
Humidity: 78%   Direction: NA
Pressure: 30.18"   Gusts: NA
Location:  23.61°N, 58.54°E
Report Text: OOMS 200350Z 00000KT 8000 NSC 21/17 Q1022 NOSIG
Loading
Personal Weather Stations






























Interactive Weather Map New forecast layout! Learn more

10-Day Weather Forecast

Advertisements
Track Severe Weather on mobile